createdAt,value
2019-06-07T00:01:25.732Z,32.65
2019-06-07T00:03:55.904Z,31.75
2019-06-07T00:06:29.145Z,32.58
2019-06-07T00:08:59.337Z,33.02
2019-06-07T00:11:29.559Z,34.78
2019-06-07T00:13:59.796Z,36.58
2019-06-07T00:16:29.960Z,36.68
2019-06-07T00:19:00.130Z,37.55
2019-06-07T00:22:12.843Z,38.60
2019-06-07T00:24:02.021Z,36.05
2019-06-07T00:26:32.265Z,36.53
2019-06-07T00:29:03.523Z,38.28
2019-06-07T00:31:33.793Z,39.55
2019-06-07T00:34:04.031Z,38.90
2019-06-07T00:36:34.275Z,37.73
2019-06-07T00:39:06.736Z,39.50
2019-06-07T00:41:37.151Z,38.60
2019-06-07T00:44:07.327Z,39.30
2019-06-07T00:46:37.589Z,40.40
2019-06-07T00:49:07.672Z,45.28
2019-06-07T00:51:49.952Z,41.25
2019-06-07T00:54:09.629Z,41.98
2019-06-07T00:56:40.453Z,40.95
2019-06-07T00:59:14.332Z,41.58
2019-06-07T01:01:43.701Z,40.20
2019-06-07T01:04:17.781Z,42.33
2019-06-07T01:06:45.714Z,41.77
2019-06-07T01:09:17.366Z,41.35
2019-06-07T01:11:47.676Z,37.63
2019-06-07T01:14:19.373Z,36.25
2019-06-07T01:16:57.546Z,34.95
2019-06-07T01:19:24.407Z,31.07
2019-06-07T01:21:53.214Z,26.15
2019-06-07T01:24:25.773Z,24.50
2019-06-07T01:26:55.185Z,22.32
2019-06-07T01:29:29.456Z,22.55
2019-06-07T01:31:57.193Z,23.22
2019-06-07T01:34:28.662Z,21.85
2019-06-07T01:36:59.170Z,21.73
2019-06-07T01:39:31.643Z,21.05
2019-06-07T01:42:01.118Z,20.23
2019-06-07T01:44:31.464Z,18.55
2019-06-07T01:47:01.747Z,17.02
2019-06-07T01:49:32.008Z,17.10
2019-06-07T01:52:03.189Z,16.15
2019-06-07T01:54:57.318Z,16.25
2019-06-07T01:57:05.368Z,16.10
2019-06-07T01:59:35.541Z,15.38
2019-06-07T02:02:05.796Z,15.35
2019-06-07T02:04:35.942Z,15.55
2019-06-07T02:07:09.051Z,16.40
2019-06-07T02:09:39.215Z,16.77
2019-06-07T02:12:25.591Z,16.12
2019-06-07T02:14:41.153Z,15.88
2019-06-07T02:17:11.321Z,17.10
2019-06-07T02:19:41.481Z,16.07
2019-06-07T02:22:11.582Z,16.07
2019-06-07T02:24:41.795Z,16.40
2019-06-07T02:27:11.898Z,15.15
2019-06-07T02:29:42.081Z,15.35
2019-06-07T02:32:12.107Z,15.20
2019-06-07T02:34:42.268Z,14.85
2019-06-07T02:37:12.279Z,15.30
2019-06-07T02:39:42.376Z,14.35
2019-06-07T02:42:12.477Z,14.98
2019-06-07T02:44:42.772Z,15.50
2019-06-07T02:47:12.942Z,13.62
2019-06-07T02:49:44.643Z,15.05
2019-06-07T02:52:14.974Z,14.25
2019-06-07T02:54:45.134Z,13.65
2019-06-07T02:57:15.353Z,14.38
2019-06-07T03:00:06.769Z,13.32
2019-06-07T03:02:17.403Z,13.90
2019-06-07T03:04:47.644Z,13.60
2019-06-07T03:07:18.745Z,13.13
2019-06-07T03:09:49.099Z,13.22
2019-06-07T03:12:22.511Z,13.38
2019-06-07T03:14:54.543Z,13.50
2019-06-07T03:17:38.888Z,16.42
2019-06-07T03:20:11.225Z,14.23
2019-06-07T03:22:42.981Z,13.70
2019-06-07T03:25:13.920Z,15.32
2019-06-07T03:27:49.893Z,15.28
2019-06-07T03:30:39.156Z,14.90
2019-06-07T03:32:48.664Z,14.95
2019-06-07T03:35:19.064Z,14.87
2019-06-07T03:37:49.229Z,14.70
2019-06-07T03:40:19.381Z,16.67
2019-06-07T03:42:49.553Z,15.32
2019-06-07T03:45:19.629Z,17.82
2019-06-07T03:47:49.800Z,17.82
2019-06-07T03:50:21.036Z,14.47
2019-06-07T03:52:51.461Z,16.10
2019-06-07T03:55:21.710Z,17.52
2019-06-07T04:00:23.727Z,15.98
2019-06-07T04:02:53.927Z,14.47
2019-06-07T04:05:24.145Z,14.83
2019-06-07T04:07:54.313Z,14.85
2019-06-07T04:10:44.732Z,14.87
2019-06-07T04:12:56.305Z,15.00
2019-06-07T04:15:26.439Z,14.70
2019-06-07T04:18:01.842Z,14.95
2019-06-07T04:20:29.494Z,15.48
2019-06-07T04:23:00.131Z,14.73
2019-06-07T04:25:33.878Z,14.83
2019-06-07T04:28:02.081Z,15.15
2019-06-07T04:30:45.525Z,14.80
2019-06-07T04:33:15.695Z,13.80
2019-06-07T04:35:45.955Z,14.90
2019-06-07T04:38:16.117Z,14.25
2019-06-07T04:40:47.246Z,13.90
2019-06-07T04:43:17.437Z,13.90
2019-06-07T04:45:51.431Z,13.93
2019-06-07T04:48:21.901Z,16.05
2019-06-07T04:50:54.830Z,17.95
2019-06-07T04:53:25.056Z,16.82
2019-06-07T04:55:55.663Z,16.48
2019-06-07T04:58:25.777Z,17.23
2019-06-07T05:01:02.600Z,16.90
2019-06-07T05:03:27.797Z,17.52
2019-06-07T05:05:58.041Z,17.62
2019-06-07T05:08:30.369Z,17.05
2019-06-07T05:11:00.107Z,16.95
2019-06-07T05:13:31.484Z,18.07
2019-06-07T05:16:02.051Z,18.35
2019-06-07T05:18:35.186Z,17.80
2019-06-07T05:21:03.951Z,19.92
2019-06-07T05:26:05.805Z,19.77
2019-06-07T05:28:37.855Z,20.25
2019-06-07T05:31:08.121Z,17.95
2019-06-07T05:33:40.301Z,18.10
2019-06-07T05:36:10.193Z,18.35
2019-06-07T05:38:42.557Z,18.70
2019-06-07T05:41:12.217Z,18.30
2019-06-07T05:43:51.511Z,19.30
2019-06-07T05:46:14.108Z,17.77
2019-06-07T05:48:44.261Z,17.23
2019-06-07T05:51:14.428Z,17.55
2019-06-07T05:53:45.995Z,18.50
2019-06-07T05:56:16.869Z,18.07
2019-06-07T05:58:47.413Z,17.55
2019-06-07T06:03:49.203Z,17.57
2019-06-07T06:06:19.619Z,16.20
2019-06-07T06:08:49.718Z,17.15
2019-06-07T06:11:19.835Z,18.05
2019-06-07T06:14:07.284Z,18.00
2019-06-07T06:16:21.735Z,17.95
2019-06-07T06:18:51.831Z,14.55
2019-06-07T06:21:22.177Z,14.23
2019-06-07T06:23:54.036Z,15.23
2019-06-07T06:26:24.337Z,15.70
2019-06-07T06:28:54.473Z,15.68
2019-06-07T06:31:24.671Z,17.27
2019-06-07T06:33:54.855Z,17.48
2019-06-07T06:36:25.029Z,18.57
2019-06-07T06:38:55.258Z,19.05
2019-06-07T06:41:25.382Z,20.65
2019-06-07T06:43:55.539Z,21.33
2019-06-07T06:46:38.863Z,22.35
2019-06-07T06:48:57.567Z,22.60
2019-06-07T06:51:27.691Z,22.65
2019-06-07T06:53:57.873Z,23.65
2019-06-07T06:56:27.888Z,24.43
2019-06-07T06:59:35.176Z,25.55
2019-06-07T07:01:30.978Z,26.87
2019-06-07T07:04:12.159Z,25.05
2019-06-07T07:06:33.591Z,24.87
2019-06-07T07:09:05.294Z,25.25
2019-06-07T07:11:52.308Z,24.77
2019-06-07T07:14:07.318Z,25.00
2019-06-07T07:16:37.421Z,25.05
2019-06-07T07:19:07.572Z,26.05
2019-06-07T07:21:37.668Z,25.02
2019-06-07T07:24:20.954Z,23.77
2019-06-07T07:26:39.686Z,24.32
2019-06-07T07:29:09.763Z,24.75
2019-06-07T07:31:39.936Z,25.97
2019-06-07T07:34:31.888Z,23.95
2019-06-07T07:36:47.116Z,24.57
2019-06-07T07:39:14.106Z,24.18
2019-06-07T07:42:04.497Z,27.07
2019-06-07T07:44:19.500Z,23.95
2019-06-07T07:46:53.797Z,21.90
2019-06-07T07:49:22.529Z,23.55
2019-06-07T07:51:56.525Z,25.25
2019-06-07T07:54:35.544Z,24.98
2019-06-07T07:57:12.503Z,24.92
2019-06-07T08:00:00.498Z,26.60
2019-06-07T08:02:14.535Z,25.40
2019-06-07T08:07:16.493Z,26.48
2019-06-07T08:09:47.480Z,24.90
2019-06-07T08:12:18.379Z,27.80
2019-06-07T08:14:51.206Z,27.05
2019-06-07T08:17:20.464Z,25.88
2019-06-07T08:19:52.287Z,25.37
2019-06-07T08:22:22.414Z,24.70
2019-06-07T08:24:53.718Z,23.55
2019-06-07T08:27:26.713Z,22.37
2019-06-07T08:30:18.473Z,22.55
2019-06-07T08:32:27.729Z,22.35
2019-06-07T08:35:03.312Z,23.85
2019-06-07T08:38:13.354Z,23.38
2019-06-07T08:40:02.042Z,22.30
2019-06-07T08:42:37.326Z,21.37
2019-06-07T08:45:06.781Z,22.80
2019-06-07T08:47:37.004Z,21.35
2019-06-07T08:50:09.139Z,22.40
2019-06-07T08:52:39.573Z,22.73
2019-06-07T08:55:11.853Z,23.38
2019-06-07T08:57:41.941Z,22.10
2019-06-07T09:00:47.877Z,20.12
2019-06-07T09:02:44.865Z,19.80
2019-06-07T09:05:15.529Z,21.07
2019-06-07T09:07:45.692Z,21.97
2019-06-07T09:10:16.538Z,20.05
2019-06-07T09:12:46.723Z,18.37
2019-06-07T09:15:23.557Z,18.05
2019-06-07T09:20:36.320Z,18.85
2019-06-07T09:22:57.770Z,18.62
2019-06-07T09:25:25.656Z,20.05
2019-06-07T09:28:00.599Z,19.07
2019-06-07T09:30:39.279Z,18.40
2019-06-07T09:33:11.496Z,19.48
2019-06-07T09:35:41.719Z,19.02
2019-06-07T09:38:24.154Z,16.67
2019-06-07T09:40:43.728Z,16.82
2019-06-07T09:45:45.596Z,16.02
2019-06-07T09:48:34.394Z,16.32
2019-06-07T09:50:47.464Z,16.93
2019-06-07T09:53:22.488Z,15.05
2019-06-07T09:55:49.426Z,15.15
2019-06-07T10:00:51.211Z,15.83
2019-06-07T10:03:22.764Z,17.57
2019-06-07T10:05:53.405Z,17.92
2019-06-07T10:09:42.636Z,17.05
2019-06-07T10:10:55.135Z,16.15
2019-06-07T10:13:25.352Z,19.02
2019-06-07T10:15:55.451Z,15.93
2019-06-07T10:18:26.596Z,15.23
2019-06-07T10:20:56.812Z,15.32
2019-06-07T10:23:27.029Z,14.45
2019-06-07T10:25:57.130Z,13.28
2019-06-07T10:28:27.229Z,13.83
2019-06-07T10:30:57.402Z,13.13
2019-06-07T10:33:27.552Z,11.65
2019-06-07T10:35:57.677Z,11.90
2019-06-07T10:38:27.841Z,12.05
2019-06-07T10:40:57.930Z,12.85
2019-06-07T10:43:28.029Z,11.85
2019-06-07T10:45:58.255Z,12.43
2019-06-07T10:48:28.413Z,15.18
2019-06-07T10:50:58.556Z,12.95
2019-06-07T10:53:28.734Z,12.65
2019-06-07T10:55:58.898Z,14.23
2019-06-07T10:58:29.130Z,14.53
2019-06-07T11:00:59.245Z,13.75
2019-06-07T11:03:29.279Z,15.10
2019-06-07T11:05:59.445Z,15.35
2019-06-07T11:08:29.601Z,14.95
2019-06-07T11:10:59.767Z,17.27
2019-06-07T11:13:29.775Z,17.48
2019-06-07T11:15:59.913Z,16.55
2019-06-07T11:18:30.044Z,14.65
2019-06-07T11:21:00.144Z,15.58
2019-06-07T11:23:30.226Z,14.58
2019-06-07T11:26:00.322Z,15.15
2019-06-07T11:28:30.374Z,12.47
2019-06-07T11:31:00.508Z,10.28
2019-06-07T11:33:30.652Z,9.83
2019-06-07T11:36:00.749Z,11.35
2019-06-07T11:38:30.767Z,11.30
2019-06-07T11:41:00.928Z,10.00
2019-06-07T11:43:31.105Z,12.03
2019-06-07T11:46:01.332Z,11.45
2019-06-07T11:48:31.413Z,12.13
2019-06-07T11:51:01.470Z,13.40
2019-06-07T11:53:31.554Z,11.08
2019-06-07T11:56:01.764Z,10.50
2019-06-07T11:58:31.878Z,10.15
2019-06-07T12:01:01.970Z,10.48
2019-06-07T12:03:32.199Z,12.07
2019-06-07T12:06:02.354Z,9.65
2019-06-07T12:08:32.588Z,9.35
2019-06-07T12:11:02.724Z,8.75
2019-06-07T12:13:32.908Z,9.80
2019-06-07T12:16:02.985Z,8.43
2019-06-07T12:18:33.228Z,12.18
2019-06-07T12:21:03.372Z,9.03
2019-06-07T12:23:33.541Z,9.18
2019-06-07T12:26:03.679Z,10.05
2019-06-07T12:28:33.906Z,10.10
2019-06-07T12:31:04.137Z,9.98
2019-06-07T12:33:34.447Z,8.38
2019-06-07T12:36:05.018Z,9.03
2019-06-07T12:38:42.473Z,9.98
2019-06-07T12:41:12.626Z,9.60
2019-06-07T12:43:42.887Z,8.90
2019-06-07T12:46:15.442Z,9.93
2019-06-07T12:48:44.970Z,10.03
2019-06-07T12:51:15.236Z,10.25
2019-06-07T12:53:45.297Z,9.05
2019-06-07T12:56:15.685Z,9.08
2019-06-07T12:58:45.723Z,8.00
2019-06-07T13:01:15.987Z,7.53
2019-06-07T13:03:46.117Z,9.00
2019-06-07T13:06:17.490Z,8.25
2019-06-07T13:08:47.848Z,8.83
2019-06-07T13:11:24.580Z,8.63
2019-06-07T13:13:49.718Z,8.78
2019-06-07T13:16:20.040Z,8.33
2019-06-07T13:18:51.120Z,7.92
2019-06-07T13:21:22.332Z,7.83
2019-06-07T13:23:52.595Z,8.45
2019-06-07T13:26:23.204Z,7.85
2019-06-07T13:28:55.513Z,7.85
2019-06-07T13:31:25.647Z,7.75
2019-06-07T13:33:55.870Z,7.65
2019-06-07T13:36:26.013Z,7.90
2019-06-07T13:38:57.284Z,6.83
2019-06-07T13:41:40.499Z,8.40
2019-06-07T13:43:59.076Z,9.10
2019-06-07T13:46:29.230Z,8.98
2019-06-07T13:48:59.299Z,9.45
2019-06-07T13:51:33.034Z,10.65
2019-06-07T13:54:02.476Z,10.45
2019-06-07T13:56:32.639Z,9.50
2019-06-07T13:59:02.796Z,8.08
2019-06-07T14:01:32.897Z,9.50
2019-06-07T14:04:03.105Z,9.03
2019-06-07T14:06:33.330Z,8.15
2019-06-07T14:09:04.154Z,8.43
2019-06-07T14:11:49.539Z,8.10
2019-06-07T14:14:06.354Z,7.92
2019-06-07T14:16:36.449Z,9.95
2019-06-07T14:19:06.631Z,7.85
2019-06-07T14:21:36.912Z,8.00
2019-06-07T14:24:07.025Z,8.05
2019-06-07T14:26:37.212Z,7.83
2019-06-07T14:29:07.218Z,8.53
2019-06-07T14:31:37.309Z,7.70
2019-06-07T14:34:07.515Z,7.78
2019-06-07T14:36:37.722Z,7.53
2019-06-07T14:39:07.861Z,7.42
2019-06-07T14:41:37.976Z,7.10
2019-06-07T14:44:08.193Z,6.97
2019-06-07T14:46:38.362Z,8.00
2019-06-07T14:49:08.509Z,6.60
2019-06-07T14:51:38.589Z,6.60
2019-06-07T14:54:08.814Z,6.75
2019-06-07T14:56:38.918Z,6.92
2019-06-07T14:59:09.059Z,6.70
2019-06-07T15:01:40.828Z,7.70
2019-06-07T15:04:11.021Z,7.05
2019-06-07T15:06:41.169Z,7.37
2019-06-07T15:09:11.320Z,6.78
2019-06-07T15:11:41.472Z,6.85
2019-06-07T15:14:11.633Z,7.00
2019-06-07T15:16:41.802Z,8.20
2019-06-07T15:19:14.455Z,7.10
2019-06-07T15:21:44.694Z,7.47
2019-06-07T15:24:14.775Z,8.48
2019-06-07T15:26:45.016Z,7.10
2019-06-07T15:29:16.096Z,7.12
2019-06-07T15:31:46.277Z,6.67
2019-06-07T15:34:16.420Z,6.67
2019-06-07T15:36:46.617Z,6.45
2019-06-07T15:39:16.753Z,6.60
2019-06-07T15:41:46.856Z,6.37
2019-06-07T15:44:16.865Z,6.50
2019-06-07T15:46:46.942Z,6.42
2019-06-07T15:49:17.031Z,6.35
2019-06-07T15:51:47.165Z,6.50
2019-06-07T15:54:17.223Z,7.25
2019-06-07T15:56:47.430Z,7.47
2019-06-07T15:59:17.581Z,7.25
2019-06-07T16:01:47.730Z,7.80
2019-06-07T16:04:17.969Z,7.67
2019-06-07T16:06:47.975Z,8.08
2019-06-07T16:09:18.210Z,8.68
2019-06-07T16:11:48.523Z,8.43
2019-06-07T16:14:18.769Z,9.08
2019-06-07T16:16:48.861Z,7.53
2019-06-07T16:19:19.062Z,8.25
2019-06-07T16:21:49.256Z,7.78
2019-06-07T16:24:19.415Z,6.78
2019-06-07T16:26:49.577Z,6.58
2019-06-07T16:29:19.787Z,7.95
2019-06-07T16:31:50.018Z,7.58
2019-06-07T16:34:20.030Z,6.90
2019-06-07T16:36:50.190Z,7.08
2019-06-07T16:39:20.419Z,7.78
2019-06-07T16:41:50.647Z,8.35
2019-06-07T16:44:20.792Z,7.45
2019-06-07T16:46:50.939Z,7.42
2019-06-07T16:49:21.121Z,7.50
2019-06-07T16:51:51.205Z,7.25
2019-06-07T16:54:21.423Z,7.50
2019-06-07T16:56:51.642Z,7.37
2019-06-07T16:59:21.666Z,6.95
2019-06-07T17:01:51.867Z,7.10
2019-06-07T17:04:23.130Z,6.97
2019-06-07T17:06:53.197Z,6.53
2019-06-07T17:09:23.368Z,5.83
2019-06-07T17:11:53.512Z,5.42
2019-06-07T17:14:23.673Z,5.22
2019-06-07T17:16:53.833Z,5.10
2019-06-07T17:19:23.859Z,5.12
2019-06-07T17:21:54.003Z,4.85
2019-06-07T17:24:26.714Z,4.97
2019-06-07T17:26:55.872Z,5.55
2019-06-07T17:29:26.052Z,5.58
2019-06-07T17:31:56.124Z,5.60
2019-06-07T17:34:26.215Z,5.08
2019-06-07T17:36:56.480Z,5.75
2019-06-07T17:39:26.698Z,5.37
2019-06-07T17:42:02.019Z,5.60
2019-06-07T17:44:28.485Z,5.87
2019-06-07T17:46:58.653Z,5.67
2019-06-07T17:49:28.795Z,6.42
2019-06-07T17:51:59.659Z,6.90
2019-06-07T17:54:29.671Z,6.20
2019-06-07T17:56:59.756Z,6.28
2019-06-07T17:59:29.835Z,6.08
2019-06-07T18:02:13.977Z,6.20
2019-06-07T18:04:31.832Z,5.53
2019-06-07T18:07:01.981Z,6.65
2019-06-07T18:09:32.745Z,6.97
2019-06-07T18:12:02.928Z,7.20
2019-06-07T18:14:33.136Z,6.78
2019-06-07T18:17:03.352Z,7.30
2019-06-07T18:19:33.492Z,7.97
2019-06-07T18:22:03.592Z,7.65
2019-06-07T18:24:34.800Z,7.33
2019-06-07T18:27:07.077Z,7.35
2019-06-07T18:29:36.789Z,7.35
2019-06-07T18:32:06.882Z,7.42
2019-06-07T18:34:37.023Z,7.70
2019-06-07T18:37:07.267Z,7.90
2019-06-07T18:39:37.489Z,6.80
2019-06-07T18:42:07.635Z,7.80
2019-06-07T18:44:37.711Z,7.85
2019-06-07T18:47:08.102Z,7.75
2019-06-07T18:49:39.389Z,8.43
2019-06-07T18:52:13.798Z,7.65
2019-06-07T18:54:43.970Z,7.50
2019-06-07T18:57:14.260Z,8.00
2019-06-07T18:59:44.428Z,6.87
2019-06-07T19:02:14.586Z,9.08
2019-06-07T19:04:44.600Z,7.90
2019-06-07T19:07:14.684Z,10.68
2019-06-07T19:09:46.364Z,8.78
2019-06-07T19:12:16.592Z,8.33
2019-06-07T19:14:47.412Z,7.67
2019-06-07T19:17:17.583Z,7.67
2019-06-07T19:19:49.856Z,7.78
2019-06-07T19:22:20.037Z,7.70
2019-06-07T19:24:50.212Z,8.10
2019-06-07T19:27:21.327Z,7.87
2019-06-07T19:29:52.664Z,7.53
2019-06-07T19:32:22.977Z,7.90
2019-06-07T19:34:53.233Z,7.72
2019-06-07T19:37:23.377Z,7.75
2019-06-07T19:39:55.603Z,7.67
2019-06-07T19:42:27.129Z,7.83
2019-06-07T19:45:08.812Z,7.53
2019-06-07T19:47:29.145Z,7.62
2019-06-07T19:49:59.313Z,7.95
2019-06-07T19:52:30.464Z,8.00
2019-06-07T19:55:05.784Z,7.92
2019-06-07T19:57:32.407Z,8.03
2019-06-07T20:00:07.755Z,8.83
2019-06-07T20:02:34.556Z,7.80
2019-06-07T20:05:06.965Z,8.00
2019-06-07T20:07:37.237Z,7.25
2019-06-07T20:10:07.469Z,8.00
2019-06-07T20:12:37.636Z,8.23
2019-06-07T20:15:27.254Z,8.75
2019-06-07T20:17:39.740Z,8.60
2019-06-07T20:20:10.865Z,8.83
2019-06-07T20:22:41.108Z,8.40
2019-06-07T20:25:12.533Z,8.15
2019-06-07T20:27:42.695Z,9.25
2019-06-07T20:30:13.512Z,8.15
2019-06-07T20:32:43.609Z,9.33
2019-06-07T20:35:13.928Z,9.18
2019-06-07T20:37:44.081Z,9.23
2019-06-07T20:40:23.547Z,8.98
2019-06-07T20:42:46.088Z,8.43
2019-06-07T20:45:30.085Z,8.80
2019-06-07T20:47:48.196Z,8.28
2019-06-07T20:50:18.859Z,7.42
2019-06-07T20:52:48.948Z,7.90
2019-06-07T20:55:19.504Z,7.62
2019-06-07T20:57:49.542Z,6.95
2019-06-07T21:00:22.139Z,7.05
2019-06-07T21:02:51.503Z,6.67
2019-06-07T21:05:21.662Z,7.67
2019-06-07T21:07:51.897Z,7.83
2019-06-07T21:10:21.915Z,7.55
2019-06-07T21:12:51.972Z,8.45
2019-06-07T21:15:22.204Z,8.00
2019-06-07T21:17:52.294Z,8.70
2019-06-07T21:20:22.608Z,8.55
2019-06-07T21:22:52.820Z,8.58
2019-06-07T21:25:23.053Z,9.30
2019-06-07T21:27:53.119Z,9.23
2019-06-07T21:30:23.348Z,8.83
2019-06-07T21:32:53.610Z,9.18
2019-06-07T21:35:23.685Z,8.93
2019-06-07T21:37:53.871Z,9.00
2019-06-07T21:40:24.016Z,8.90
2019-06-07T21:42:54.243Z,9.83
2019-06-07T21:45:24.402Z,10.88
2019-06-07T21:47:54.572Z,11.10
2019-06-07T21:50:24.719Z,11.10
2019-06-07T21:52:54.892Z,12.47
2019-06-07T21:55:24.981Z,13.05
2019-06-07T21:57:55.149Z,13.75
2019-06-07T22:00:53.536Z,12.85
2019-06-07T22:03:24.163Z,14.07
2019-06-07T22:05:54.317Z,14.40
2019-06-07T22:08:24.504Z,15.95
2019-06-07T22:10:54.656Z,15.70
2019-06-07T22:13:24.791Z,15.65
2019-06-07T22:15:54.973Z,15.68
2019-06-07T22:18:25.191Z,16.17
2019-06-07T22:20:55.364Z,16.10
2019-06-07T22:23:25.661Z,15.30
2019-06-07T22:25:55.828Z,17.90
2019-06-07T22:28:25.972Z,17.17
2019-06-07T22:30:56.076Z,18.73
2019-06-07T22:33:26.239Z,18.20
2019-06-07T22:35:56.330Z,17.10
2019-06-07T22:38:26.548Z,16.67
2019-06-07T22:40:56.791Z,16.95
2019-06-07T22:43:27.010Z,15.70
2019-06-07T22:45:57.252Z,15.15
2019-06-07T22:48:27.485Z,15.63
2019-06-07T22:50:59.208Z,14.15
2019-06-07T22:53:29.310Z,15.03
2019-06-07T22:56:01.036Z,13.90
2019-06-07T22:58:31.241Z,14.55
2019-06-07T23:01:01.317Z,13.45
2019-06-07T23:03:31.492Z,13.28
2019-06-07T23:06:01.510Z,11.97
2019-06-07T23:08:32.693Z,11.28
2019-06-07T23:11:02.916Z,11.38
2019-06-07T23:13:33.008Z,11.40
2019-06-07T23:16:03.263Z,11.75
2019-06-07T23:18:33.488Z,11.65
2019-06-07T23:21:03.661Z,12.98
2019-06-07T23:23:33.749Z,12.05
2019-06-07T23:26:04.552Z,12.30
2019-06-07T23:28:35.198Z,13.10
2019-06-07T23:31:05.256Z,12.18
2019-06-07T23:33:35.476Z,12.35
2019-06-07T23:36:05.715Z,12.37
2019-06-07T23:38:36.479Z,13.10
2019-06-07T23:41:06.636Z,13.15
2019-06-07T23:43:36.717Z,13.90
2019-06-07T23:46:06.750Z,13.43
2019-06-07T23:48:36.769Z,14.00
2019-06-07T23:51:06.819Z,14.43
2019-06-07T23:53:36.909Z,14.05
2019-06-07T23:56:07.009Z,13.45
2019-06-07T23:58:37.177Z,14.70
